createdAt,value
2019-05-07T00:00:08.330Z,6.67
2019-05-07T00:02:42.708Z,6.83
2019-05-07T00:05:14.045Z,7.63
2019-05-07T00:07:45.904Z,6.97
2019-05-07T00:10:17.881Z,6.00
2019-05-07T00:12:51.503Z,5.50
2019-05-07T00:15:24.300Z,7.60
2019-05-07T00:17:56.680Z,7.03
2019-05-07T00:20:28.583Z,7.97
2019-05-07T00:23:02.744Z,8.20
2019-05-07T00:25:33.946Z,8.83
2019-05-07T00:28:05.882Z,7.40
2019-05-07T00:30:37.762Z,7.83
2019-05-07T00:33:09.806Z,7.33
2019-05-07T00:35:53.023Z,6.73
2019-05-07T00:38:26.288Z,6.77
2019-05-07T00:41:23.160Z,7.30
2019-05-07T00:43:57.023Z,7.73
2019-05-07T00:46:32.145Z,7.37
2019-05-07T00:49:04.184Z,7.10
2019-05-07T00:51:36.313Z,8.87
2019-05-07T00:54:08.229Z,8.30
2019-05-07T00:56:40.245Z,9.73
2019-05-07T00:59:13.095Z,10.97
2019-05-07T01:01:45.177Z,16.60
2019-05-07T01:04:17.033Z,16.40
2019-05-07T01:06:48.902Z,16.03
2019-05-07T01:09:22.891Z,13.70
2019-05-07T01:11:54.356Z,12.73
2019-05-07T01:14:26.240Z,14.27
2019-05-07T01:16:58.120Z,13.17
2019-05-07T01:19:29.972Z,12.30
2019-05-07T01:22:03.195Z,10.93
2019-05-07T01:24:35.176Z,6.53
2019-05-07T01:27:06.991Z,5.20
2019-05-07T01:29:38.838Z,4.10
2019-05-07T01:32:30.345Z,4.13
2019-05-07T01:35:07.410Z,3.93
2019-05-07T01:37:39.280Z,4.20
2019-05-07T01:40:12.253Z,3.60
2019-05-07T01:42:44.560Z,4.80
2019-05-07T01:45:16.894Z,4.40
2019-05-07T01:47:50.271Z,4.20
2019-05-07T01:50:22.913Z,3.50
2019-05-07T01:52:54.764Z,3.73
2019-05-07T01:55:26.548Z,3.97
2019-05-07T01:57:58.440Z,4.50
2019-05-07T02:00:30.237Z,3.67
2019-05-07T02:03:09.359Z,4.43
2019-05-07T02:05:50.139Z,7.07
2019-05-07T02:08:42.335Z,10.03
2019-05-07T02:11:16.740Z,11.20
2019-05-07T02:13:48.526Z,13.73
2019-05-07T02:16:21.833Z,15.67
2019-05-07T02:18:53.690Z,14.23
2019-05-07T02:21:25.596Z,14.27
2019-05-07T02:23:57.395Z,12.10
2019-05-07T02:26:32.167Z,10.40
2019-05-07T02:29:04.079Z,8.10
2019-05-07T02:31:35.924Z,8.47
2019-05-07T02:34:07.791Z,9.40
2019-05-07T02:36:43.248Z,8.67
2019-05-07T02:39:23.940Z,8.63
2019-05-07T02:41:54.575Z,8.63
2019-05-07T02:44:26.446Z,10.80
2019-05-07T02:47:06.762Z,13.73
2019-05-07T02:49:53.611Z,12.70
2019-05-07T02:52:45.619Z,9.57
2019-05-07T02:55:26.059Z,7.87
2019-05-07T02:57:57.934Z,8.13
2019-05-07T03:00:29.784Z,7.97
2019-05-07T03:03:04.163Z,9.57
2019-05-07T03:05:35.335Z,8.07
2019-05-07T03:08:07.250Z,8.20
2019-05-07T03:10:39.122Z,8.13
2019-05-07T03:13:13.763Z,7.17
2019-05-07T03:15:44.700Z,7.30
2019-05-07T03:18:18.937Z,7.87
2019-05-07T03:21:17.939Z,7.90
2019-05-07T03:24:14.389Z,8.63
2019-05-07T03:26:47.119Z,8.57
2019-05-07T03:29:24.031Z,9.17
2019-05-07T03:31:58.506Z,7.80
2019-05-07T03:34:37.546Z,8.47
2019-05-07T03:37:13.538Z,10.40
2019-05-07T03:39:44.933Z,11.17
2019-05-07T03:42:16.804Z,10.17
2019-05-07T03:45:13.462Z,9.27
2019-05-07T03:47:47.362Z,8.90
2019-05-07T03:50:19.173Z,10.33
2019-05-07T03:52:50.974Z,9.33
2019-05-07T03:55:23.436Z,7.03
2019-05-07T03:57:55.455Z,6.93
2019-05-07T04:00:27.648Z,8.13
2019-05-07T04:02:59.529Z,7.80
2019-05-07T04:05:34.254Z,7.20
2019-05-07T04:08:04.954Z,7.20
2019-05-07T04:10:36.832Z,7.37
2019-05-07T04:13:08.673Z,5.93
2019-05-07T04:15:43.889Z,6.23
2019-05-07T04:18:14.661Z,6.43
2019-05-07T04:20:46.630Z,6.07
2019-05-07T04:23:18.505Z,4.83
2019-05-07T04:26:09.204Z,5.27
2019-05-07T04:28:59.957Z,4.60
2019-05-07T04:31:35.931Z,4.97
2019-05-07T04:34:16.185Z,4.40
2019-05-07T04:36:53.172Z,4.07
2019-05-07T04:39:23.499Z,4.00
2019-05-07T04:41:55.450Z,3.83
2019-05-07T04:44:27.232Z,4.20
2019-05-07T04:46:59.024Z,3.27
2019-05-07T04:49:33.189Z,3.80
2019-05-07T04:52:15.312Z,3.73
2019-05-07T04:54:46.621Z,4.60
2019-05-07T04:57:27.554Z,3.70
2019-05-07T05:00:02.923Z,3.20
2019-05-07T05:03:04.347Z,3.67
2019-05-07T05:05:36.154Z,3.57
2019-05-07T05:08:08.010Z,3.23
2019-05-07T05:10:39.794Z,4.20
2019-05-07T05:13:12.982Z,3.27
2019-05-07T05:15:45.014Z,3.50
2019-05-07T05:18:16.893Z,3.20
2019-05-07T05:21:05.695Z,3.80
2019-05-07T05:23:56.466Z,3.50
2019-05-07T05:26:28.308Z,3.63
2019-05-07T05:29:02.283Z,3.17
2019-05-07T05:31:33.688Z,3.80
2019-05-07T05:34:05.536Z,3.63
2019-05-07T05:36:37.375Z,4.57
2019-05-07T05:39:09.775Z,3.70
2019-05-07T05:41:43.448Z,3.93
2019-05-07T05:44:32.159Z,3.23
2019-05-07T05:47:04.028Z,3.63
2019-05-07T05:49:35.840Z,3.77
2019-05-07T05:52:26.554Z,3.43
2019-05-07T05:55:02.636Z,4.03
2019-05-07T05:57:56.237Z,3.60
2019-05-07T06:00:47.503Z,3.20
2019-05-07T06:03:32.261Z,3.83
2019-05-07T06:06:21.969Z,3.50
2019-05-07T06:09:04.224Z,3.50
2019-05-07T06:11:54.227Z,3.80
2019-05-07T06:14:47.823Z,3.97
2019-05-07T06:17:56.646Z,3.77
2019-05-07T06:20:42.854Z,2.27
2019-05-07T06:23:52.822Z,3.07
2019-05-07T06:26:24.782Z,2.47
2019-05-07T06:28:57.553Z,2.40
2019-05-07T06:31:29.321Z,2.43
2019-05-07T06:34:01.887Z,2.20
2019-05-07T06:36:35.475Z,3.07
2019-05-07T06:39:16.968Z,3.13
2019-05-07T06:42:05.993Z,2.40
2019-05-07T06:44:38.001Z,2.43
2019-05-07T06:47:10.356Z,3.03
2019-05-07T06:49:42.813Z,2.53
2019-05-07T06:52:14.732Z,1.90
2019-05-07T06:54:46.688Z,1.60
2019-05-07T06:57:18.581Z,1.77
2019-05-07T06:59:54.098Z,1.50
2019-05-07T07:02:41.816Z,2.37
2019-05-07T07:05:42.545Z,2.07
2019-05-07T07:08:33.496Z,1.47
2019-05-07T07:11:15.571Z,1.60
2019-05-07T07:13:47.425Z,1.87
2019-05-07T07:16:19.286Z,3.83
2019-05-07T07:18:54.953Z,6.80
2019-05-07T07:21:24.722Z,1.50
2019-05-07T07:23:56.567Z,1.70
2019-05-07T07:26:28.625Z,1.10
2019-05-07T07:29:01.987Z,1.50
2019-05-07T07:31:52.788Z,1.60
2019-05-07T07:34:26.015Z,1.67
2019-05-07T07:37:15.726Z,1.73
2019-05-07T07:39:46.648Z,1.60
2019-05-07T07:42:18.442Z,2.00
2019-05-07T07:44:52.994Z,2.57
2019-05-07T07:47:24.807Z,2.17
2019-05-07T07:49:56.599Z,1.80
2019-05-07T07:52:28.469Z,2.97
2019-05-07T07:55:02.187Z,2.17
2019-05-07T07:57:44.394Z,2.03
2019-05-07T08:00:35.567Z,1.73
2019-05-07T08:03:09.417Z,1.80
2019-05-07T08:05:42.714Z,1.73
2019-05-07T08:08:14.724Z,1.77
2019-05-07T08:10:46.644Z,2.30
2019-05-07T08:13:18.432Z,2.00
2019-05-07T08:15:51.942Z,2.70
2019-05-07T08:18:23.983Z,1.97
2019-05-07T08:20:55.914Z,2.17
2019-05-07T08:23:27.779Z,1.67
2019-05-07T08:25:59.664Z,1.40
2019-05-07T08:28:32.047Z,1.97
2019-05-07T08:31:22.580Z,3.87
2019-05-07T08:34:02.083Z,1.33
2019-05-07T08:36:36.449Z,2.37
2019-05-07T08:39:09.023Z,2.23
2019-05-07T08:41:42.339Z,2.60
2019-05-07T08:44:18.674Z,3.50
2019-05-07T08:47:02.700Z,1.60
2019-05-07T08:49:39.540Z,4.33
2019-05-07T08:52:08.644Z,2.90
2019-05-07T08:54:42.679Z,2.77
2019-05-07T08:57:14.633Z,2.27
2019-05-07T09:00:00.069Z,2.00
2019-05-07T09:02:22.411Z,1.60
2019-05-07T09:04:54.422Z,1.87
2019-05-07T09:07:26.434Z,1.60
2019-05-07T09:09:58.424Z,1.97
2019-05-07T09:12:31.880Z,2.40
2019-05-07T09:15:05.110Z,2.40
2019-05-07T09:17:37.327Z,1.53
2019-05-07T09:20:09.403Z,2.40
2019-05-07T09:22:42.774Z,1.27
2019-05-07T09:25:15.237Z,3.07
2019-05-07T09:27:52.375Z,1.60
2019-05-07T09:30:43.686Z,2.83
2019-05-07T09:33:32.463Z,1.80
2019-05-07T09:36:07.491Z,1.57
2019-05-07T09:38:49.748Z,1.60
2019-05-07T09:41:28.468Z,5.80
2019-05-07T09:44:02.989Z,2.97
2019-05-07T09:46:37.268Z,1.10
2019-05-07T09:49:12.044Z,3.90
2019-05-07T09:51:45.087Z,2.20
2019-05-07T09:54:17.047Z,1.50
2019-05-07T09:56:49.191Z,1.40
2019-05-07T09:59:21.926Z,2.77
2019-05-07T10:02:05.004Z,6.43
2019-05-07T10:04:44.906Z,1.57
2019-05-07T10:07:16.959Z,2.53
2019-05-07T10:09:48.902Z,1.30
2019-05-07T10:12:36.489Z,2.07
2019-05-07T10:15:09.260Z,2.00
2019-05-07T10:17:49.041Z,1.93
2019-05-07T10:20:22.777Z,2.83
2019-05-07T10:22:54.786Z,2.53
2019-05-07T10:25:28.782Z,1.50
2019-05-07T10:28:01.958Z,1.27
2019-05-07T10:30:35.040Z,2.67
2019-05-07T10:33:07.035Z,2.60
2019-05-07T10:35:39.116Z,1.90
2019-05-07T10:38:12.451Z,1.97
2019-05-07T10:40:44.782Z,1.47
2019-05-07T10:43:16.680Z,1.90
2019-05-07T10:46:13.240Z,1.77
2019-05-07T10:48:55.345Z,1.60
2019-05-07T10:51:28.563Z,1.07
2019-05-07T10:54:02.226Z,2.10
2019-05-07T10:56:35.624Z,1.30
2019-05-07T10:59:07.804Z,1.17
2019-05-07T11:01:45.283Z,2.17
2019-05-07T11:04:18.166Z,1.53
2019-05-07T11:06:52.163Z,1.23
2019-05-07T11:09:24.078Z,1.40
2019-05-07T11:11:56.537Z,1.10
2019-05-07T11:14:28.505Z,1.47
2019-05-07T11:17:24.048Z,3.77
2019-05-07T11:19:56.143Z,1.00
2019-05-07T11:22:28.053Z,1.43
2019-05-07T11:25:03.003Z,1.30
2019-05-07T11:27:36.277Z,1.00
2019-05-07T11:30:08.983Z,1.33
2019-05-07T11:32:42.965Z,1.20
2019-05-07T11:35:16.131Z,1.53
2019-05-07T11:37:48.411Z,1.53
2019-05-07T11:40:22.682Z,1.50
2019-05-07T11:43:15.777Z,1.73
2019-05-07T11:45:58.661Z,1.40
2019-05-07T11:48:29.366Z,2.13
2019-05-07T11:51:07.397Z,1.60
2019-05-07T11:53:41.926Z,1.40
2019-05-07T11:56:13.933Z,1.17
2019-05-07T11:58:45.811Z,1.30
2019-05-07T12:01:19.243Z,1.80
2019-05-07T12:03:52.049Z,2.60
2019-05-07T12:06:24.136Z,2.33
2019-05-07T12:08:56.149Z,1.63
2019-05-07T12:11:28.114Z,3.63
2019-05-07T12:14:02.073Z,1.20
2019-05-07T12:16:47.745Z,1.03
2019-05-07T12:19:22.648Z,1.60
2019-05-07T12:21:54.443Z,1.50
2019-05-07T12:24:26.371Z,1.30
2019-05-07T12:26:58.246Z,1.77
2019-05-07T12:29:32.271Z,2.20
2019-05-07T12:32:29.346Z,1.93
2019-05-07T12:35:08.151Z,1.43
2019-05-07T12:37:42.394Z,1.33
2019-05-07T12:40:14.489Z,1.97
2019-05-07T12:42:46.496Z,1.47
2019-05-07T12:45:18.527Z,3.13
2019-05-07T12:47:52.942Z,1.93
2019-05-07T12:50:24.649Z,4.20
2019-05-07T12:53:03.825Z,1.10
2019-05-07T12:55:42.886Z,1.30
2019-05-07T12:58:15.106Z,1.97
2019-05-07T13:00:55.526Z,1.00
2019-05-07T13:03:49.350Z,1.43
2019-05-07T13:06:24.143Z,1.30
2019-05-07T13:08:56.010Z,1.10
2019-05-07T13:11:27.906Z,1.20
2019-05-07T13:14:01.998Z,0.90
2019-05-07T13:16:34.498Z,1.40
2019-05-07T13:19:06.399Z,1.33
2019-05-07T13:21:47.443Z,1.37
2019-05-07T13:24:14.756Z,1.80
2019-05-07T13:26:45.685Z,1.70
2019-05-07T13:29:18.659Z,2.77
2019-05-07T13:31:53.867Z,1.40
2019-05-07T13:34:25.157Z,1.37
2019-05-07T13:37:02.532Z,1.20
2019-05-07T13:39:46.143Z,1.37
2019-05-07T13:42:35.590Z,1.40
2019-05-07T13:45:15.475Z,2.80
2019-05-07T13:47:51.783Z,3.97
2019-05-07T13:50:24.289Z,3.83
2019-05-07T13:52:56.159Z,2.33
2019-05-07T13:55:28.014Z,1.77
2019-05-07T13:58:02.048Z,1.60
2019-05-07T14:00:40.149Z,2.27
2019-05-07T14:03:12.147Z,2.67
2019-05-07T14:05:44.498Z,2.13
2019-05-07T14:08:16.863Z,1.20
2019-05-07T14:10:48.792Z,1.10
2019-05-07T14:13:21.953Z,1.30
2019-05-07T14:16:06.957Z,4.37
2019-05-07T14:18:39.697Z,3.77
2019-05-07T14:21:13.000Z,1.50
2019-05-07T14:23:45.202Z,3.03
2019-05-07T14:26:17.078Z,1.90
2019-05-07T14:28:48.972Z,3.57
2019-05-07T14:31:20.899Z,4.50
2019-05-07T14:33:58.254Z,1.80
2019-05-07T14:36:56.957Z,4.03
2019-05-07T14:39:28.415Z,5.73
2019-05-07T14:42:02.710Z,12.90
2019-05-07T14:44:50.299Z,3.43
2019-05-07T14:47:22.556Z,3.20
2019-05-07T14:49:55.444Z,3.10
2019-05-07T14:52:33.045Z,1.93
2019-05-07T14:55:05.041Z,2.30
2019-05-07T14:57:41.911Z,1.53
2019-05-07T15:00:14.492Z,2.40
2019-05-07T15:02:46.400Z,4.30
2019-05-07T15:05:18.378Z,1.47
2019-05-07T15:07:50.412Z,4.73
2019-05-07T15:10:22.350Z,3.63
2019-05-07T15:12:54.254Z,9.43
2019-05-07T15:15:26.072Z,4.47
2019-05-07T15:18:15.814Z,1.90
2019-05-07T15:20:47.441Z,3.30
2019-05-07T15:23:31.867Z,1.57
2019-05-07T15:26:04.823Z,5.17
2019-05-07T15:28:39.212Z,10.27
2019-05-07T15:31:19.006Z,22.60
2019-05-07T15:33:52.298Z,39.73
2019-05-07T15:36:24.523Z,2.62
2019-05-07T15:38:56.405Z,1.67
2019-05-07T15:41:28.367Z,2.08
2019-05-07T15:44:02.715Z,11.25
2019-05-07T15:46:34.292Z,11.68
2019-05-07T15:49:06.207Z,16.73
2019-05-07T15:51:38.141Z,10.65
2019-05-07T15:54:10.145Z,28.02
2019-05-07T15:56:43.050Z,11.28
2019-05-07T15:59:22.816Z,18.62
2019-05-07T16:02:00.050Z,16.25
2019-05-07T16:04:32.889Z,17.48
2019-05-07T16:07:06.562Z,6.83
2019-05-07T16:09:44.689Z,29.27
2019-05-07T16:12:19.761Z,24.35
2019-05-07T16:14:52.509Z,32.58
2019-05-07T16:17:32.845Z,9.58
2019-05-07T16:20:05.134Z,12.33
2019-05-07T16:22:42.371Z,14.10
2019-05-07T16:25:14.299Z,4.47
2019-05-07T16:27:46.189Z,14.68
2019-05-07T16:30:18.187Z,6.55
2019-05-07T16:32:52.608Z,10.23
2019-05-07T16:35:23.601Z,7.50
2019-05-07T16:37:55.490Z,11.57
2019-05-07T16:40:28.529Z,10.07
2019-05-07T16:43:02.728Z,19.20
2019-05-07T16:45:34.900Z,17.80
2019-05-07T16:48:08.932Z,5.17
2019-05-07T16:50:42.265Z,4.50
2019-05-07T16:53:26.596Z,4.17
2019-05-07T16:55:48.291Z,4.30
2019-05-07T16:58:36.514Z,3.97
2019-05-07T17:01:10.041Z,5.03
2019-05-07T17:03:57.413Z,5.10
2019-05-07T17:06:29.303Z,5.10
2019-05-07T17:09:04.441Z,9.53
2019-05-07T17:11:37.797Z,11.00
2019-05-07T17:14:09.682Z,11.23
2019-05-07T17:16:42.015Z,9.60
2019-05-07T17:19:15.210Z,5.50
2019-05-07T17:21:47.265Z,7.90
2019-05-07T17:24:19.722Z,6.93
2019-05-07T17:26:51.842Z,8.77
2019-05-07T17:29:23.796Z,7.87
2019-05-07T17:31:55.772Z,10.80
2019-05-07T17:34:27.658Z,14.47
2019-05-07T17:37:01.839Z,16.73
2019-05-07T17:39:33.141Z,13.80
2019-05-07T17:42:05.123Z,9.33
2019-05-07T17:44:37.552Z,9.40
2019-05-07T17:47:12.773Z,6.03
2019-05-07T17:49:45.384Z,5.27
2019-05-07T17:52:17.305Z,5.47
2019-05-07T17:54:49.191Z,3.60
2019-05-07T17:57:22.759Z,2.90
2019-05-07T17:59:54.779Z,4.50
2019-05-07T18:02:48.342Z,4.87
2019-05-07T18:05:20.317Z,5.87
2019-05-07T18:07:52.802Z,4.10
2019-05-07T18:10:25.757Z,4.23
2019-05-07T18:12:57.658Z,4.00
2019-05-07T18:15:29.550Z,4.80
2019-05-07T18:18:06.595Z,4.50
2019-05-07T18:20:38.442Z,5.33
2019-05-07T18:23:16.423Z,163.13
2019-05-07T18:25:43.941Z,99.17
2019-05-07T18:28:17.090Z,10.10
2019-05-07T18:30:51.578Z,7.10
2019-05-07T18:33:49.038Z,8.07
2019-05-07T18:36:22.698Z,6.17
2019-05-07T18:38:54.774Z,17.20
2019-05-07T18:41:26.675Z,12.57
2019-05-07T18:44:08.968Z,16.67
2019-05-07T18:46:32.802Z,33.23
2019-05-07T18:49:05.020Z,34.40
2019-05-07T18:51:36.908Z,32.97
2019-05-07T18:54:08.791Z,12.10
2019-05-07T18:56:42.062Z,6.90
2019-05-07T18:59:15.009Z,8.13
2019-05-07T19:01:46.828Z,5.97
2019-05-07T19:04:18.727Z,5.73
2019-05-07T19:06:52.676Z,10.17
2019-05-07T19:09:27.466Z,18.07
2019-05-07T19:11:59.778Z,26.93
2019-05-07T19:14:33.349Z,23.47
2019-05-07T19:17:05.796Z,22.23
2019-05-07T19:19:38.133Z,29.80
2019-05-07T19:22:10.279Z,28.53
2019-05-07T19:24:47.819Z,55.63
2019-05-07T19:27:17.204Z,43.40
2019-05-07T19:29:49.367Z,82.63
2019-05-07T19:32:22.865Z,84.73
2019-05-07T19:34:54.933Z,64.23
2019-05-07T19:37:27.182Z,48.73
2019-05-07T19:39:59.135Z,54.73
2019-05-07T19:42:31.795Z,58.87
2019-05-07T19:45:03.932Z,59.33
2019-05-07T19:47:36.821Z,67.47
2019-05-07T19:50:12.410Z,35.10
2019-05-07T19:52:45.209Z,42.67
2019-05-07T19:55:17.206Z,36.10
2019-05-07T19:58:02.440Z,36.13
2019-05-07T20:00:34.422Z,37.13
2019-05-07T20:03:06.385Z,47.83
2019-05-07T20:05:39.352Z,67.83
2019-05-07T20:08:12.056Z,57.27
2019-05-07T20:10:51.879Z,104.07
2019-05-07T20:13:23.899Z,129.80
2019-05-07T20:16:04.952Z,115.43
2019-05-07T20:18:37.125Z,123.73
2019-05-07T20:21:08.935Z,109.27
2019-05-07T20:23:42.611Z,103.00
2019-05-07T20:26:14.707Z,112.10
2019-05-07T20:28:47.609Z,107.83
2019-05-07T20:31:19.498Z,105.17
2019-05-07T20:33:53.019Z,100.80
2019-05-07T20:36:25.139Z,92.23
2019-05-07T20:38:57.028Z,95.17
2019-05-07T20:41:28.891Z,92.50
2019-05-07T20:44:02.875Z,87.00
2019-05-07T20:46:34.562Z,79.93
2019-05-07T20:49:06.401Z,60.57
2019-05-07T20:51:38.243Z,65.57
2019-05-07T20:54:16.284Z,53.57
2019-05-07T20:56:54.515Z,42.73
2019-05-07T20:59:26.320Z,90.40
2019-05-07T21:01:58.267Z,111.53
2019-05-07T21:04:32.838Z,130.00
2019-05-07T21:07:04.026Z,130.93
2019-05-07T21:09:35.916Z,91.07
2019-05-07T21:12:08.172Z,112.20
2019-05-07T21:14:41.815Z,109.73
2019-05-07T21:17:13.738Z,109.67
2019-05-07T21:19:48.740Z,102.13
2019-05-07T21:22:22.723Z,102.17
2019-05-07T21:24:54.448Z,96.70
2019-05-07T21:27:26.418Z,79.13
2019-05-07T21:29:58.285Z,73.07
2019-05-07T21:32:32.382Z,55.80
2019-05-07T21:35:03.619Z,50.93
2019-05-07T21:37:35.541Z,52.77
2019-05-07T21:40:08.036Z,61.03
2019-05-07T21:42:40.100Z,58.57
2019-05-07T21:45:12.391Z,61.43
2019-05-07T21:47:45.438Z,58.00
2019-05-07T21:50:17.558Z,58.40
2019-05-07T21:52:54.477Z,66.17
2019-05-07T21:55:35.778Z,71.90
2019-05-07T21:58:33.354Z,74.50
2019-05-07T22:01:22.254Z,66.63
2019-05-07T22:03:59.127Z,59.57
2019-05-07T22:06:31.061Z,57.43
2019-05-07T22:09:02.916Z,59.07
2019-05-07T22:11:36.428Z,60.63
2019-05-07T22:14:08.432Z,54.57
2019-05-07T22:16:40.300Z,50.23
2019-05-07T22:19:12.402Z,48.57
2019-05-07T22:21:44.683Z,43.70
2019-05-07T22:24:16.588Z,39.20
2019-05-07T22:26:48.617Z,43.07
2019-05-07T22:29:22.591Z,44.93
2019-05-07T22:32:04.337Z,42.07
2019-05-07T22:34:58.030Z,41.03
2019-05-07T22:37:32.414Z,37.70
2019-05-07T22:40:06.616Z,37.67
2019-05-07T22:42:40.448Z,38.00
2019-05-07T22:45:12.502Z,38.73
2019-05-07T22:47:44.464Z,39.93
2019-05-07T22:50:17.033Z,43.87
2019-05-07T22:52:48.915Z,42.93
2019-05-07T22:55:21.831Z,46.40
2019-05-07T22:58:01.837Z,44.97
2019-05-07T23:00:36.813Z,46.83
2019-05-07T23:03:08.690Z,44.27
2019-05-07T23:05:42.224Z,44.03
2019-05-07T23:08:14.431Z,56.63
2019-05-07T23:10:46.669Z,69.03
2019-05-07T23:13:18.725Z,72.63
2019-05-07T23:15:51.770Z,75.23
2019-05-07T23:18:24.144Z,76.37
2019-05-07T23:20:56.139Z,76.93
2019-05-07T23:23:27.954Z,69.23
2019-05-07T23:25:59.735Z,59.63
2019-05-07T23:28:32.347Z,61.53
2019-05-07T23:31:04.195Z,58.27
2019-05-07T23:33:36.069Z,53.30
2019-05-07T23:36:08.045Z,52.67
2019-05-07T23:38:39.933Z,51.07
2019-05-07T23:41:22.164Z,52.07
2019-05-07T23:44:12.470Z,53.57
2019-05-07T23:46:45.810Z,55.33
2019-05-07T23:49:17.675Z,54.80
2019-05-07T23:51:49.561Z,57.57
2019-05-07T23:54:23.082Z,54.30
2019-05-07T23:57:06.050Z,51.27
2019-05-07T23:59:29.606Z,49.77
